sensor_id;sensor_type;location;lat;lon;timestamp;P1;durP1;ratioP1;P2;durP2;ratioP2
29848;SDS011;16728;50.832;5.590;2022-07-09T00:01:26;5.40;;;4.10;;
29848;SDS011;16728;50.832;5.590;2022-07-09T00:04:28;5.63;;;3.60;;
29848;SDS011;16728;50.832;5.590;2022-07-09T00:07:30;4.27;;;3.53;;
29848;SDS011;16728;50.832;5.590;2022-07-09T00:10:32;9.57;;;3.90;;
29848;SDS011;16728;50.832;5.590;2022-07-09T00:13:34;4.75;;;3.40;;
29848;SDS011;16728;50.832;5.590;2022-07-09T00:16:36;6.10;;;4.00;;
29848;SDS011;16728;50.832;5.590;2022-07-09T00:19:38;4.95;;;3.58;;
29848;SDS011;16728;50.832;5.590;2022-07-09T00:22:40;4.60;;;3.30;;
29848;SDS011;16728;50.832;5.590;2022-07-09T00:25:42;5.10;;;3.40;;
29848;SDS011;16728;50.832;5.590;2022-07-09T00:28:44;5.35;;;3.80;;
29848;SDS011;16728;50.832;5.590;2022-07-09T00:31:46;4.57;;;3.53;;
29848;SDS011;16728;50.832;5.590;2022-07-09T00:34:48;5.68;;;4.18;;
29848;SDS011;16728;50.832;5.590;2022-07-09T00:37:50;6.93;;;4.20;;
29848;SDS011;16728;50.832;5.590;2022-07-09T00:40:52;8.93;;;4.88;;
29848;SDS011;16728;50.832;5.590;2022-07-09T00:43:54;6.00;;;4.55;;
29848;SDS011;16728;50.832;5.590;2022-07-09T00:46:56;6.70;;;4.60;;
29848;SDS011;16728;50.832;5.590;2022-07-09T00:49:58;5.85;;;4.88;;
29848;SDS011;16728;50.832;5.590;2022-07-09T00:53:00;7.38;;;4.32;;
29848;SDS011;16728;50.832;5.590;2022-07-09T00:56:02;6.00;;;4.68;;
29848;SDS011;16728;50.832;5.590;2022-07-09T00:59:05;8.10;;;4.30;;
29848;SDS011;16728;50.832;5.590;2022-07-09T01:02:11;6.00;;;4.00;;
29848;SDS011;16728;50.832;5.590;2022-07-09T01:05:13;7.25;;;4.10;;
29848;SDS011;16728;50.832;5.590;2022-07-09T01:08:15;8.32;;;4.03;;
29848;SDS011;16728;50.832;5.590;2022-07-09T01:11:17;5.18;;;3.72;;
29848;SDS011;16728;50.832;5.590;2022-07-09T01:14:19;5.57;;;3.80;;
29848;SDS011;16728;50.832;5.590;2022-07-09T01:17:20;9.52;;;4.50;;
29848;SDS011;16728;50.832;5.590;2022-07-09T01:20:22;6.60;;;4.90;;
29848;SDS011;16728;50.832;5.590;2022-07-09T01:23:24;6.00;;;5.18;;
29848;SDS011;16728;50.832;5.590;2022-07-09T01:26:27;7.40;;;5.50;;
29848;SDS011;16728;50.832;5.590;2022-07-09T01:29:29;7.95;;;5.32;;
29848;SDS011;16728;50.832;5.590;2022-07-09T01:32:31;6.20;;;5.60;;
29848;SDS011;16728;50.832;5.590;2022-07-09T01:35:33;7.88;;;5.68;;
29848;SDS011;16728;50.832;5.590;2022-07-09T01:38:35;7.15;;;4.93;;
29848;SDS011;16728;50.832;5.590;2022-07-09T01:41:37;6.25;;;5.00;;
29848;SDS011;16728;50.832;5.590;2022-07-09T01:44:39;9.05;;;5.38;;
29848;SDS011;16728;50.832;5.590;2022-07-09T01:47:41;10.27;;;5.15;;
29848;SDS011;16728;50.832;5.590;2022-07-09T01:50:44;9.38;;;4.97;;
29848;SDS011;16728;50.832;5.590;2022-07-09T01:53:46;8.57;;;4.47;;
29848;SDS011;16728;50.832;5.590;2022-07-09T01:56:47;6.80;;;4.15;;
29848;SDS011;16728;50.832;5.590;2022-07-09T01:59:49;8.52;;;4.65;;
29848;SDS011;16728;50.832;5.590;2022-07-09T02:02:51;10.82;;;4.20;;
29848;SDS011;16728;50.832;5.590;2022-07-09T02:05:53;6.97;;;3.90;;
29848;SDS011;16728;50.832;5.590;2022-07-09T02:08:55;7.15;;;3.60;;
29848;SDS011;16728;50.832;5.590;2022-07-09T02:11:56;10.70;;;4.30;;
29848;SDS011;16728;50.832;5.590;2022-07-09T02:14:58;6.57;;;3.85;;
29848;SDS011;16728;50.832;5.590;2022-07-09T02:18:00;9.05;;;3.90;;
29848;SDS011;16728;50.832;5.590;2022-07-09T02:21:02;4.50;;;3.58;;
29848;SDS011;16728;50.832;5.590;2022-07-09T02:24:06;4.95;;;3.70;;
29848;SDS011;16728;50.832;5.590;2022-07-09T02:27:08;8.75;;;4.50;;
29848;SDS011;16728;50.832;5.590;2022-07-09T02:30:10;8.45;;;4.63;;
29848;SDS011;16728;50.832;5.590;2022-07-09T02:33:12;8.18;;;4.32;;
29848;SDS011;16728;50.832;5.590;2022-07-09T02:36:14;5.68;;;4.35;;
29848;SDS011;16728;50.832;5.590;2022-07-09T02:39:16;5.72;;;4.07;;
29848;SDS011;16728;50.832;5.590;2022-07-09T02:42:18;5.68;;;3.80;;
29848;SDS011;16728;50.832;5.590;2022-07-09T02:45:20;7.38;;;3.90;;
29848;SDS011;16728;50.832;5.590;2022-07-09T02:48:22;10.18;;;4.03;;
29848;SDS011;16728;50.832;5.590;2022-07-09T02:51:26;8.30;;;3.95;;
29848;SDS011;16728;50.832;5.590;2022-07-09T02:54:28;5.50;;;4.35;;
29848;SDS011;16728;50.832;5.590;2022-07-09T02:57:30;7.63;;;4.32;;
29848;SDS011;16728;50.832;5.590;2022-07-09T03:00:32;9.57;;;4.47;;
29848;SDS011;16728;50.832;5.590;2022-07-09T03:03:34;5.63;;;3.80;;
29848;SDS011;16728;50.832;5.590;2022-07-09T03:06:38;7.43;;;4.15;;
29848;SDS011;16728;50.832;5.590;2022-07-09T03:09:40;10.30;;;4.38;;
29848;SDS011;16728;50.832;5.590;2022-07-09T03:12:42;8.27;;;4.65;;
29848;SDS011;16728;50.832;5.590;2022-07-09T03:15:44;6.43;;;4.65;;
29848;SDS011;16728;50.832;5.590;2022-07-09T03:18:46;8.88;;;4.65;;
29848;SDS011;16728;50.832;5.590;2022-07-09T03:21:48;5.30;;;4.55;;
29848;SDS011;16728;50.832;5.590;2022-07-09T03:24:49;6.40;;;4.15;;
29848;SDS011;16728;50.832;5.590;2022-07-09T03:27:52;8.20;;;4.43;;
29848;SDS011;16728;50.832;5.590;2022-07-09T03:30:54;8.80;;;4.13;;
29848;SDS011;16728;50.832;5.590;2022-07-09T03:33:57;14.32;;;5.20;;
29848;SDS011;16728;50.832;5.590;2022-07-09T03:36:58;8.38;;;4.70;;
29848;SDS011;16728;50.832;5.590;2022-07-09T03:40:00;13.32;;;5.38;;
29848;SDS011;16728;50.832;5.590;2022-07-09T03:43:03;9.02;;;4.30;;
29848;SDS011;16728;50.832;5.590;2022-07-09T03:46:05;11.75;;;5.05;;
29848;SDS011;16728;50.832;5.590;2022-07-09T03:49:07;11.38;;;5.32;;
29848;SDS011;16728;50.832;5.590;2022-07-09T03:52:09;8.93;;;5.07;;
29848;SDS011;16728;50.832;5.590;2022-07-09T03:55:18;8.32;;;4.63;;
29848;SDS011;16728;50.832;5.590;2022-07-09T03:58:20;7.45;;;4.55;;
29848;SDS011;16728;50.832;5.590;2022-07-09T04:01:21;10.52;;;5.05;;
29848;SDS011;16728;50.832;5.590;2022-07-09T04:04:23;10.00;;;4.60;;
29848;SDS011;16728;50.832;5.590;2022-07-09T04:07:25;9.02;;;5.07;;
29848;SDS011;16728;50.832;5.590;2022-07-09T04:10:27;8.35;;;5.10;;
29848;SDS011;16728;50.832;5.590;2022-07-09T04:13:29;8.68;;;4.97;;
29848;SDS011;16728;50.832;5.590;2022-07-09T04:16:31;7.18;;;4.72;;
29848;SDS011;16728;50.832;5.590;2022-07-09T04:19:34;8.95;;;5.00;;
29848;SDS011;16728;50.832;5.590;2022-07-09T04:22:35;6.15;;;5.05;;
29848;SDS011;16728;50.832;5.590;2022-07-09T04:25:37;11.05;;;5.70;;
29848;SDS011;16728;50.832;5.590;2022-07-09T04:28:39;7.88;;;5.25;;
29848;SDS011;16728;50.832;5.590;2022-07-09T04:31:41;9.45;;;5.05;;
29848;SDS011;16728;50.832;5.590;2022-07-09T04:34:43;9.35;;;5.13;;
29848;SDS011;16728;50.832;5.590;2022-07-09T04:37:45;8.55;;;5.40;;
29848;SDS011;16728;50.832;5.590;2022-07-09T04:40:47;10.82;;;5.40;;
29848;SDS011;16728;50.832;5.590;2022-07-09T04:43:49;12.85;;;5.32;;
29848;SDS011;16728;50.832;5.590;2022-07-09T04:46:51;10.95;;;5.65;;
29848;SDS011;16728;50.832;5.590;2022-07-09T04:49:53;11.88;;;5.68;;
29848;SDS011;16728;50.832;5.590;2022-07-09T04:52:54;15.15;;;5.57;;
29848;SDS011;16728;50.832;5.590;2022-07-09T04:55:56;11.02;;;5.45;;
29848;SDS011;16728;50.832;5.590;2022-07-09T04:58:58;10.60;;;5.72;;
29848;SDS011;16728;50.832;5.590;2022-07-09T05:02:01;13.38;;;6.18;;
29848;SDS011;16728;50.832;5.590;2022-07-09T05:05:04;13.15;;;6.57;;
29848;SDS011;16728;50.832;5.590;2022-07-09T05:08:07;9.32;;;6.70;;
29848;SDS011;16728;50.832;5.590;2022-07-09T05:11:09;12.52;;;6.10;;
29848;SDS011;16728;50.832;5.590;2022-07-09T05:14:18;11.73;;;6.60;;
29848;SDS011;16728;50.832;5.590;2022-07-09T05:17:20;10.35;;;6.88;;
29848;SDS011;16728;50.832;5.590;2022-07-09T05:20:22;8.90;;;6.22;;
29848;SDS011;16728;50.832;5.590;2022-07-09T05:23:24;13.70;;;7.55;;
29848;SDS011;16728;50.832;5.590;2022-07-09T05:26:26;9.98;;;7.03;;
29848;SDS011;16728;50.832;5.590;2022-07-09T05:29:30;13.15;;;6.95;;
29848;SDS011;16728;50.832;5.590;2022-07-09T05:32:32;11.15;;;7.28;;
29848;SDS011;16728;50.832;5.590;2022-07-09T05:35:34;10.85;;;7.28;;
29848;SDS011;16728;50.832;5.590;2022-07-09T05:38:36;11.40;;;7.10;;
29848;SDS011;16728;50.832;5.590;2022-07-09T05:41:38;10.93;;;7.40;;
29848;SDS011;16728;50.832;5.590;2022-07-09T05:44:40;12.98;;;7.72;;
29848;SDS011;16728;50.832;5.590;2022-07-09T05:47:42;14.70;;;7.65;;
29848;SDS011;16728;50.832;5.590;2022-07-09T05:50:44;11.98;;;7.70;;
29848;SDS011;16728;50.832;5.590;2022-07-09T05:53:46;14.95;;;8.13;;
29848;SDS011;16728;50.832;5.590;2022-07-09T05:59:56;20.40;;;8.13;;
29848;SDS011;16728;50.832;5.590;2022-07-09T06:02:58;14.88;;;8.73;;
29848;SDS011;16728;50.832;5.590;2022-07-09T06:06:00;14.18;;;8.57;;
29848;SDS011;16728;50.832;5.590;2022-07-09T06:09:02;10.32;;;8.30;;
29848;SDS011;16728;50.832;5.590;2022-07-09T06:12:04;13.73;;;9.40;;
29848;SDS011;16728;50.832;5.590;2022-07-09T06:15:06;17.20;;;9.60;;
29848;SDS011;16728;50.832;5.590;2022-07-09T06:18:09;17.65;;;10.55;;
29848;SDS011;16728;50.832;5.590;2022-07-09T06:21:11;13.68;;;9.98;;
29848;SDS011;16728;50.832;5.590;2022-07-09T06:24:13;14.18;;;10.10;;
29848;SDS011;16728;50.832;5.590;2022-07-09T06:27:37;16.00;;;10.45;;
29848;SDS011;16728;50.832;5.590;2022-07-09T06:30:37;15.32;;;10.80;;
29848;SDS011;16728;50.832;5.590;2022-07-09T06:33:39;16.15;;;10.40;;
29848;SDS011;16728;50.832;5.590;2022-07-09T06:36:41;17.75;;;10.57;;
29848;SDS011;16728;50.832;5.590;2022-07-09T06:39:45;15.75;;;10.38;;
29848;SDS011;16728;50.832;5.590;2022-07-09T06:42:47;17.08;;;10.60;;
29848;SDS011;16728;50.832;5.590;2022-07-09T06:45:49;17.25;;;10.68;;
29848;SDS011;16728;50.832;5.590;2022-07-09T06:48:51;15.23;;;11.35;;
29848;SDS011;16728;50.832;5.590;2022-07-09T06:51:58;13.23;;;11.15;;
29848;SDS011;16728;50.832;5.590;2022-07-09T06:55:04;20.40;;;11.63;;
29848;SDS011;16728;50.832;5.590;2022-07-09T06:58:06;19.15;;;11.35;;
29848;SDS011;16728;50.832;5.590;2022-07-09T07:01:08;15.20;;;12.02;;
29848;SDS011;16728;50.832;5.590;2022-07-09T07:04:10;17.20;;;10.95;;
29848;SDS011;16728;50.832;5.590;2022-07-09T07:07:19;18.45;;;11.60;;
29848;SDS011;16728;50.832;5.590;2022-07-09T07:10:21;17.20;;;10.23;;
29848;SDS011;16728;50.832;5.590;2022-07-09T07:13:24;14.80;;;10.27;;
29848;SDS011;16728;50.832;5.590;2022-07-09T07:16:26;9.88;;;8.88;;
29848;SDS011;16728;50.832;5.590;2022-07-09T07:19:28;14.55;;;10.63;;
29848;SDS011;16728;50.832;5.590;2022-07-09T07:22:30;14.55;;;9.27;;
29848;SDS011;16728;50.832;5.590;2022-07-09T07:25:34;14.65;;;8.02;;
29848;SDS011;16728;50.832;5.590;2022-07-09T07:28:36;9.75;;;7.15;;
29848;SDS011;16728;50.832;5.590;2022-07-09T07:31:39;11.77;;;7.83;;
29848;SDS011;16728;50.832;5.590;2022-07-09T07:34:41;8.00;;;5.60;;
29848;SDS011;16728;50.832;5.590;2022-07-09T07:37:42;8.60;;;5.25;;
29848;SDS011;16728;50.832;5.590;2022-07-09T07:40:44;5.72;;;4.45;;
29848;SDS011;16728;50.832;5.590;2022-07-09T07:43:46;8.32;;;4.80;;
29848;SDS011;16728;50.832;5.590;2022-07-09T07:46:49;8.32;;;6.07;;
29848;SDS011;16728;50.832;5.590;2022-07-09T07:49:51;7.35;;;5.57;;
29848;SDS011;16728;50.832;5.590;2022-07-09T07:52:53;9.23;;;5.40;;
29848;SDS011;16728;50.832;5.590;2022-07-09T07:55:55;9.60;;;4.97;;
29848;SDS011;16728;50.832;5.590;2022-07-09T07:58:56;7.22;;;4.22;;
29848;SDS011;16728;50.832;5.590;2022-07-09T08:01:58;8.25;;;4.65;;
29848;SDS011;16728;50.832;5.590;2022-07-09T08:05:17;9.95;;;5.07;;
29848;SDS011;16728;50.832;5.590;2022-07-09T08:08:19;13.15;;;5.55;;
29848;SDS011;16728;50.832;5.590;2022-07-09T08:11:39;10.45;;;5.55;;
29848;SDS011;16728;50.832;5.590;2022-07-09T08:14:41;7.70;;;4.93;;
29848;SDS011;16728;50.832;5.590;2022-07-09T08:17:43;5.60;;;4.25;;
29848;SDS011;16728;50.832;5.590;2022-07-09T08:20:45;9.02;;;4.53;;
29848;SDS011;16728;50.832;5.590;2022-07-09T08:23:50;8.82;;;4.80;;
29848;SDS011;16728;50.832;5.590;2022-07-09T08:26:53;9.13;;;4.57;;
29848;SDS011;16728;50.832;5.590;2022-07-09T08:33:48;5.95;;;4.30;;
29848;SDS011;16728;50.832;5.590;2022-07-09T08:36:50;8.70;;;4.25;;
29848;SDS011;16728;50.832;5.590;2022-07-09T08:39:52;7.65;;;4.10;;
29848;SDS011;16728;50.832;5.590;2022-07-09T08:42:57;5.38;;;3.97;;
29848;SDS011;16728;50.832;5.590;2022-07-09T08:46:04;8.65;;;5.28;;
29848;SDS011;16728;50.832;5.590;2022-07-09T08:49:07;9.40;;;4.43;;
29848;SDS011;16728;50.832;5.590;2022-07-09T08:56:42;6.88;;;4.13;;
29848;SDS011;16728;50.832;5.590;2022-07-09T08:59:43;7.22;;;3.95;;
29848;SDS011;16728;50.832;5.590;2022-07-09T09:02:45;8.05;;;3.90;;
29848;SDS011;16728;50.832;5.590;2022-07-09T09:05:59;7.55;;;3.78;;
29848;SDS011;16728;50.832;5.590;2022-07-09T09:17:13;6.97;;;4.40;;
29848;SDS011;16728;50.832;5.590;2022-07-09T09:20:16;7.00;;;3.97;;
29848;SDS011;16728;50.832;5.590;2022-07-09T09:26:39;6.18;;;4.00;;
29848;SDS011;16728;50.832;5.590;2022-07-09T09:29:50;4.85;;;3.90;;
29848;SDS011;16728;50.832;5.590;2022-07-09T09:33:23;6.85;;;4.90;;
29848;SDS011;16728;50.832;5.590;2022-07-09T09:36:29;9.40;;;5.15;;
29848;SDS011;16728;50.832;5.590;2022-07-09T09:39:49;6.50;;;4.97;;
29848;SDS011;16728;50.832;5.590;2022-07-09T09:42:51;9.32;;;5.82;;
29848;SDS011;16728;50.832;5.590;2022-07-09T09:45:59;10.05;;;5.03;;
29848;SDS011;16728;50.832;5.590;2022-07-09T09:49:17;9.95;;;4.53;;
29848;SDS011;16728;50.832;5.590;2022-07-09T09:52:22;12.82;;;5.20;;
29848;SDS011;16728;50.832;5.590;2022-07-09T09:55:25;6.25;;;3.92;;
29848;SDS011;16728;50.832;5.590;2022-07-09T09:58:27;6.40;;;4.15;;
29848;SDS011;16728;50.832;5.590;2022-07-09T10:01:30;7.32;;;3.35;;
29848;SDS011;16728;50.832;5.590;2022-07-09T10:04:42;4.00;;;2.80;;
29848;SDS011;16728;50.832;5.590;2022-07-09T10:07:44;7.60;;;3.80;;
29848;SDS011;16728;50.832;5.590;2022-07-09T10:10:59;6.32;;;3.50;;
29848;SDS011;16728;50.832;5.590;2022-07-09T10:14:01;9.07;;;3.70;;
29848;SDS011;16728;50.832;5.590;2022-07-09T10:17:14;9.18;;;3.80;;
29848;SDS011;16728;50.832;5.590;2022-07-09T10:20:17;6.93;;;3.60;;
29848;SDS011;16728;50.832;5.590;2022-07-09T10:23:50;6.70;;;3.90;;
29848;SDS011;16728;50.832;5.590;2022-07-09T10:26:52;8.32;;;4.80;;
29848;SDS011;16728;50.832;5.590;2022-07-09T10:30:04;7.07;;;4.28;;
29848;SDS011;16728;50.832;5.590;2022-07-09T10:33:07;5.25;;;3.58;;
29848;SDS011;16728;50.832;5.590;2022-07-09T10:36:15;4.68;;;3.78;;
29848;SDS011;16728;50.832;5.590;2022-07-09T10:39:18;6.40;;;2.88;;
29848;SDS011;16728;50.832;5.590;2022-07-09T10:42:26;5.72;;;2.55;;
29848;SDS011;16728;50.832;5.590;2022-07-09T10:45:38;5.25;;;2.85;;
29848;SDS011;16728;50.832;5.590;2022-07-09T10:48:46;9.45;;;3.13;;
29848;SDS011;16728;50.832;5.590;2022-07-09T10:51:49;6.63;;;2.70;;
29848;SDS011;16728;50.832;5.590;2022-07-09T10:54:51;4.38;;;2.85;;
29848;SDS011;16728;50.832;5.590;2022-07-09T10:57:54;5.90;;;2.75;;
29848;SDS011;16728;50.832;5.590;2022-07-09T11:01:20;5.40;;;2.83;;
29848;SDS011;16728;50.832;5.590;2022-07-09T11:04:31;6.53;;;3.20;;
29848;SDS011;16728;50.832;5.590;2022-07-09T11:07:33;5.20;;;2.83;;
29848;SDS011;16728;50.832;5.590;2022-07-09T11:10:54;5.65;;;2.90;;
29848;SDS011;16728;50.832;5.590;2022-07-09T11:20:56;4.50;;;2.60;;
29848;SDS011;16728;50.832;5.590;2022-07-09T11:24:01;5.28;;;2.30;;
29848;SDS011;16728;50.832;5.590;2022-07-09T11:27:24;5.18;;;2.55;;
29848;SDS011;16728;50.832;5.590;2022-07-09T11:38:11;5.63;;;3.70;;
29848;SDS011;16728;50.832;5.590;2022-07-09T11:41:15;7.13;;;3.78;;
29848;SDS011;16728;50.832;5.590;2022-07-09T11:44:24;4.57;;;4.00;;
29848;SDS011;16728;50.832;5.590;2022-07-09T11:47:36;9.30;;;3.65;;
29848;SDS011;16728;50.832;5.590;2022-07-09T11:58:48;7.05;;;5.07;;
29848;SDS011;16728;50.832;5.590;2022-07-09T12:09:13;10.18;;;5.75;;
29848;SDS011;16728;50.832;5.590;2022-07-09T12:12:17;9.30;;;7.13;;
29848;SDS011;16728;50.832;5.590;2022-07-09T12:15:19;7.57;;;6.50;;
29848;SDS011;16728;50.832;5.590;2022-07-09T12:18:21;9.73;;;6.75;;
29848;SDS011;16728;50.832;5.590;2022-07-09T12:21:24;10.37;;;6.53;;
29848;SDS011;16728;50.832;5.590;2022-07-09T12:24:26;9.13;;;6.80;;
29848;SDS011;16728;50.832;5.590;2022-07-09T12:27:28;15.02;;;8.15;;
29848;SDS011;16728;50.832;5.590;2022-07-09T12:30:29;12.38;;;7.18;;
29848;SDS011;16728;50.832;5.590;2022-07-09T12:33:32;9.32;;;7.93;;
29848;SDS011;16728;50.832;5.590;2022-07-09T12:36:33;10.73;;;8.27;;
29848;SDS011;16728;50.832;5.590;2022-07-09T12:39:55;13.55;;;9.68;;
29848;SDS011;16728;50.832;5.590;2022-07-09T12:42:57;16.13;;;10.98;;
29848;SDS011;16728;50.832;5.590;2022-07-09T12:45:59;12.90;;;10.23;;
29848;SDS011;16728;50.832;5.590;2022-07-09T12:52:10;21.83;;;14.60;;
29848;SDS011;16728;50.832;5.590;2022-07-09T12:55:12;14.13;;;12.40;;
29848;SDS011;16728;50.832;5.590;2022-07-09T12:58:14;10.23;;;8.02;;
29848;SDS011;16728;50.832;5.590;2022-07-09T13:01:16;11.23;;;8.50;;
29848;SDS011;16728;50.832;5.590;2022-07-09T13:04:37;9.20;;;8.20;;
29848;SDS011;16728;50.832;5.590;2022-07-09T13:11:18;10.10;;;7.13;;
29848;SDS011;16728;50.832;5.590;2022-07-09T13:24:56;4.78;;;3.50;;
29848;SDS011;16728;50.832;5.590;2022-07-09T13:27:58;5.70;;;3.47;;
29848;SDS011;16728;50.832;5.590;2022-07-09T13:31:00;6.93;;;2.95;;
29848;SDS011;16728;50.832;5.590;2022-07-09T13:34:02;4.33;;;2.40;;
29848;SDS011;16728;50.832;5.590;2022-07-09T13:37:04;2.45;;;2.03;;
29848;SDS011;16728;50.832;5.590;2022-07-09T13:40:06;5.30;;;2.10;;
29848;SDS011;16728;50.832;5.590;2022-07-09T13:43:09;2.70;;;1.83;;
29848;SDS011;16728;50.832;5.590;2022-07-09T13:46:17;4.97;;;1.70;;
29848;SDS011;16728;50.832;5.590;2022-07-09T13:49:25;2.33;;;1.48;;
29848;SDS011;16728;50.832;5.590;2022-07-09T13:52:27;1.52;;;1.20;;
29848;SDS011;16728;50.832;5.590;2022-07-09T14:02:10;2.38;;;0.90;;
29848;SDS011;16728;50.832;5.590;2022-07-09T14:05:52;3.05;;;1.00;;
29848;SDS011;16728;50.832;5.590;2022-07-09T14:08:54;2.03;;;0.95;;
29848;SDS011;16728;50.832;5.590;2022-07-09T14:25:55;4.47;;;1.20;;
29848;SDS011;16728;50.832;5.590;2022-07-09T14:28:57;3.33;;;1.10;;
29848;SDS011;16728;50.832;5.590;2022-07-09T14:31:59;3.30;;;1.20;;
29848;SDS011;16728;50.832;5.590;2022-07-09T14:41:36;2.10;;;1.20;;
29848;SDS011;16728;50.832;5.590;2022-07-09T14:44:38;1.33;;;1.08;;
29848;SDS011;16728;50.832;5.590;2022-07-09T14:47:41;2.22;;;0.93;;
29848;SDS011;16728;50.832;5.590;2022-07-09T14:50:43;2.13;;;1.08;;
29848;SDS011;16728;50.832;5.590;2022-07-09T14:53:45;2.57;;;1.10;;
29848;SDS011;16728;50.832;5.590;2022-07-09T14:56:47;2.03;;;1.15;;
29848;SDS011;16728;50.832;5.590;2022-07-09T14:59:49;2.90;;;0.90;;
29848;SDS011;16728;50.832;5.590;2022-07-09T15:02:51;4.07;;;1.13;;
29848;SDS011;16728;50.832;5.590;2022-07-09T15:05:54;1.80;;;0.90;;
29848;SDS011;16728;50.832;5.590;2022-07-09T15:08:57;3.53;;;0.82;;
29848;SDS011;16728;50.832;5.590;2022-07-09T15:11:59;1.27;;;0.82;;
29848;SDS011;16728;50.832;5.590;2022-07-09T15:15:01;1.20;;;0.80;;
29848;SDS011;16728;50.832;5.590;2022-07-09T15:18:04;2.05;;;1.30;;
29848;SDS011;16728;50.832;5.590;2022-07-09T15:21:06;2.70;;;0.80;;
29848;SDS011;16728;50.832;5.590;2022-07-09T15:24:09;3.60;;;1.15;;
29848;SDS011;16728;50.832;5.590;2022-07-09T15:27:11;1.75;;;1.00;;
29848;SDS011;16728;50.832;5.590;2022-07-09T15:30:13;4.03;;;0.90;;
29848;SDS011;16728;50.832;5.590;2022-07-09T15:33:16;1.48;;;0.80;;
29848;SDS011;16728;50.832;5.590;2022-07-09T15:36:19;1.58;;;0.90;;
29848;SDS011;16728;50.832;5.590;2022-07-09T15:39:21;2.27;;;1.30;;
29848;SDS011;16728;50.832;5.590;2022-07-09T15:42:23;3.67;;;1.50;;
29848;SDS011;16728;50.832;5.590;2022-07-09T15:45:25;2.70;;;0.98;;
29848;SDS011;16728;50.832;5.590;2022-07-09T15:48:27;2.03;;;0.90;;
29848;SDS011;16728;50.832;5.590;2022-07-09T15:51:28;1.17;;;0.95;;
29848;SDS011;16728;50.832;5.590;2022-07-09T15:54:30;1.38;;;0.68;;
29848;SDS011;16728;50.832;5.590;2022-07-09T15:57:32;1.98;;;0.90;;
29848;SDS011;16728;50.832;5.590;2022-07-09T16:00:35;1.00;;;0.77;;
29848;SDS011;16728;50.832;5.590;2022-07-09T16:03:37;3.20;;;1.00;;
29848;SDS011;16728;50.832;5.590;2022-07-09T16:06:39;1.98;;;1.00;;
29848;SDS011;16728;50.832;5.590;2022-07-09T16:09:41;2.88;;;1.40;;
29848;SDS011;16728;50.832;5.590;2022-07-09T16:12:43;1.65;;;0.98;;
29848;SDS011;16728;50.832;5.590;2022-07-09T16:15:51;1.38;;;0.80;;
29848;SDS011;16728;50.832;5.590;2022-07-09T16:18:53;4.68;;;1.10;;
29848;SDS011;16728;50.832;5.590;2022-07-09T16:21:55;3.20;;;1.20;;
29848;SDS011;16728;50.832;5.590;2022-07-09T16:24:57;4.10;;;1.13;;
29848;SDS011;16728;50.832;5.590;2022-07-09T16:27:59;4.28;;;1.10;;
29848;SDS011;16728;50.832;5.590;2022-07-09T16:31:01;2.88;;;1.02;;
29848;SDS011;16728;50.832;5.590;2022-07-09T16:34:03;2.17;;;0.98;;
29848;SDS011;16728;50.832;5.590;2022-07-09T16:37:04;1.90;;;0.93;;
29848;SDS011;16728;50.832;5.590;2022-07-09T16:43:56;3.08;;;1.40;;
29848;SDS011;16728;50.832;5.590;2022-07-09T16:46:58;5.45;;;1.40;;
29848;SDS011;16728;50.832;5.590;2022-07-09T16:50:00;3.67;;;1.45;;
29848;SDS011;16728;50.832;5.590;2022-07-09T16:53:05;4.90;;;1.50;;
29848;SDS011;16728;50.832;5.590;2022-07-09T16:56:08;4.25;;;1.30;;
29848;SDS011;16728;50.832;5.590;2022-07-09T17:02:20;5.25;;;1.77;;
29848;SDS011;16728;50.832;5.590;2022-07-09T17:05:23;3.15;;;1.27;;
29848;SDS011;16728;50.832;5.590;2022-07-09T17:08:26;3.85;;;1.25;;
29848;SDS011;16728;50.832;5.590;2022-07-09T17:11:28;5.78;;;1.92;;
29848;SDS011;16728;50.832;5.590;2022-07-09T17:14:30;5.60;;;1.33;;
29848;SDS011;16728;50.832;5.590;2022-07-09T17:17:32;7.07;;;1.25;;
29848;SDS011;16728;50.832;5.590;2022-07-09T17:20:35;5.15;;;1.15;;
29848;SDS011;16728;50.832;5.590;2022-07-09T17:23:38;2.90;;;1.48;;
29848;SDS011;16728;50.832;5.590;2022-07-09T17:26:40;2.28;;;1.10;;
29848;SDS011;16728;50.832;5.590;2022-07-09T17:29:42;5.32;;;0.90;;
29848;SDS011;16728;50.832;5.590;2022-07-09T17:32:50;2.55;;;0.93;;
29848;SDS011;16728;50.832;5.590;2022-07-09T17:35:58;4.00;;;1.23;;
29848;SDS011;16728;50.832;5.590;2022-07-09T17:39:04;1.92;;;0.75;;
29848;SDS011;16728;50.832;5.590;2022-07-09T17:42:06;4.85;;;1.45;;
29848;SDS011;16728;50.832;5.590;2022-07-09T17:45:08;3.35;;;1.23;;
29848;SDS011;16728;50.832;5.590;2022-07-09T17:48:10;4.15;;;1.88;;
29848;SDS011;16728;50.832;5.590;2022-07-09T17:51:12;5.20;;;1.15;;
29848;SDS011;16728;50.832;5.590;2022-07-09T17:54:14;7.68;;;1.20;;
29848;SDS011;16728;50.832;5.590;2022-07-09T17:57:17;4.25;;;1.33;;
29848;SDS011;16728;50.832;5.590;2022-07-09T18:00:21;4.63;;;1.30;;
29848;SDS011;16728;50.832;5.590;2022-07-09T18:03:24;4.18;;;1.10;;
29848;SDS011;16728;50.832;5.590;2022-07-09T18:06:26;3.45;;;1.40;;
29848;SDS011;16728;50.832;5.590;2022-07-09T18:09:28;3.83;;;1.03;;
29848;SDS011;16728;50.832;5.590;2022-07-09T18:12:30;2.90;;;0.85;;
29848;SDS011;16728;50.832;5.590;2022-07-09T18:15:32;3.92;;;1.10;;
29848;SDS011;16728;50.832;5.590;2022-07-09T18:18:34;4.68;;;1.10;;
29848;SDS011;16728;50.832;5.590;2022-07-09T18:21:39;6.35;;;1.33;;
29848;SDS011;16728;50.832;5.590;2022-07-09T18:24:41;8.50;;;1.70;;
29848;SDS011;16728;50.832;5.590;2022-07-09T18:27:43;5.82;;;1.17;;
29848;SDS011;16728;50.832;5.590;2022-07-09T18:30:45;3.20;;;1.15;;
29848;SDS011;16728;50.832;5.590;2022-07-09T18:33:47;3.10;;;1.23;;
29848;SDS011;16728;50.832;5.590;2022-07-09T18:36:49;6.97;;;1.27;;
29848;SDS011;16728;50.832;5.590;2022-07-09T18:39:51;4.80;;;0.95;;
29848;SDS011;16728;50.832;5.590;2022-07-09T18:42:54;4.85;;;1.45;;
29848;SDS011;16728;50.832;5.590;2022-07-09T18:46:05;2.53;;;1.20;;
29848;SDS011;16728;50.832;5.590;2022-07-09T18:49:22;5.97;;;1.40;;
29848;SDS011;16728;50.832;5.590;2022-07-09T18:52:23;2.65;;;1.30;;
29848;SDS011;16728;50.832;5.590;2022-07-09T18:55:26;4.82;;;1.80;;
29848;SDS011;16728;50.832;5.590;2022-07-09T18:58:30;6.22;;;2.22;;
29848;SDS011;16728;50.832;5.590;2022-07-09T19:01:34;5.10;;;1.58;;
29848;SDS011;16728;50.832;5.590;2022-07-09T19:04:37;3.70;;;1.73;;
29848;SDS011;16728;50.832;5.590;2022-07-09T19:07:40;5.10;;;1.50;;
29848;SDS011;16728;50.832;5.590;2022-07-09T19:10:43;4.57;;;1.55;;
29848;SDS011;16728;50.832;5.590;2022-07-09T19:13:45;5.63;;;2.17;;
29848;SDS011;16728;50.832;5.590;2022-07-09T19:16:47;6.45;;;1.80;;
29848;SDS011;16728;50.832;5.590;2022-07-09T19:19:49;4.35;;;1.33;;
29848;SDS011;16728;50.832;5.590;2022-07-09T19:26:12;3.60;;;1.05;;
29848;SDS011;16728;50.832;5.590;2022-07-09T19:29:14;7.38;;;1.27;;
29848;SDS011;16728;50.832;5.590;2022-07-09T19:32:16;3.85;;;1.42;;
29848;SDS011;16728;50.832;5.590;2022-07-09T19:35:49;3.65;;;1.38;;
29848;SDS011;16728;50.832;5.590;2022-07-09T19:47:15;3.35;;;1.38;;
29848;SDS011;16728;50.832;5.590;2022-07-09T19:50:18;7.25;;;1.70;;
29848;SDS011;16728;50.832;5.590;2022-07-09T19:53:20;4.45;;;1.55;;
29848;SDS011;16728;50.832;5.590;2022-07-09T19:56:22;3.25;;;1.38;;
29848;SDS011;16728;50.832;5.590;2022-07-09T20:03:38;3.53;;;1.15;;
29848;SDS011;16728;50.832;5.590;2022-07-09T20:06:41;4.35;;;1.40;;
29848;SDS011;16728;50.832;5.590;2022-07-09T20:09:43;7.03;;;1.80;;
29848;SDS011;16728;50.832;5.590;2022-07-09T20:12:45;5.28;;;1.33;;
29848;SDS011;16728;50.832;5.590;2022-07-09T20:15:47;4.50;;;1.50;;
29848;SDS011;16728;50.832;5.590;2022-07-09T20:18:49;8.05;;;1.80;;
29848;SDS011;16728;50.832;5.590;2022-07-09T20:21:51;3.50;;;1.40;;